Time;durP1;ratioP1;P1;durP2;ratioP2;P2;SDS_P1;SDS_P2;PMS_P1;PMS_P2;Temp;Humidity;BMP_temperature;BMP_pressure;BME280_temperature;BME280_humidity;BME280_pressure;Samples;Min_cycle;Max_cycle;Signal;HPM_P1;HPM_P2
2023/10/18 00:00:55;;;;;;;6.13;3.83;;;;;;;;;;5084484;28;20073;-66
2023/10/18 00:03:20;;;;;;;6.13;3.55;;;;;;;;;;5091038;28;20032;-66
2023/10/18 00:05:49;;;;;;;6.45;3.78;;;;;;;;;;5091899;28;20032;-66
2023/10/18 00:08:15;;;;;;;6.55;3.97;;;;;;;;;;5080994;28;20024;-66
2023/10/18 00:10:40;;;;;;;5.68;3.70;;;;;;;;;;5091778;28;20012;-65
2023/10/18 00:13:06;;;;;;;5.45;3.47;;;;;;;;;;5091035;28;20035;-66
2023/10/18 00:15:32;;;;;;;5.57;3.28;;;;;;;;;;5091735;28;20024;-66
2023/10/18 00:17:58;;;;;;;7.03;3.72;;;;;;;;;;5091091;28;20028;-65
2023/10/18 00:20:26;;;;;;;6.83;4.00;;;;;;;;;;5091793;28;20047;-65
2023/10/18 00:22:53;;;;;;;5.15;3.75;;;;;;;;;;5091048;28;20738;-66
2023/10/18 00:25:20;;;;;;;5.10;3.13;;;;;;;;;;5091210;28;20393;-66
2023/10/18 00:27:45;;;;;;;5.65;3.40;;;;;;;;;;5090165;28;20108;-66
2023/10/18 00:30:11;;;;;;;6.75;3.47;;;;;;;;;;5089969;28;20048;-66
2023/10/18 00:32:37;;;;;;;5.75;3.88;;;;;;;;;;5078309;28;20517;-66
2023/10/18 00:35:20;;;;;;;7.80;4.07;;;;;;;;;;5081916;28;20040;-66
2023/10/18 00:37:46;;;;;;;6.13;4.07;;;;;;;;;;5090038;28;20040;-66
2023/10/18 00:43:26;;;;;;;5.15;3.30;;;;;;;;;;5089421;28;20044;-66
2023/10/18 00:45:52;;;;;;;6.35;3.58;;;;;;;;;;5080319;28;20039;-66
2023/10/18 00:48:19;;;;;;;5.75;3.42;;;;;;;;;;5090054;28;20024;-66
2023/10/18 00:50:46;;;;;;;6.10;3.70;;;;;;;;;;5090447;28;20028;-66
2023/10/18 00:53:11;;;;;;;4.90;3.58;;;;;;;;;;5092929;28;20694;-67
2023/10/18 00:55:37;;;;;;;8.02;3.58;;;;;;;;;;5092027;28;20012;-67
2023/10/18 00:58:05;;;;;;;5.88;3.72;;;;;;;;;;5094692;28;20028;-67
2023/10/18 01:00:31;;;;;;;6.22;4.18;;;;;;;;;;5082224;28;20399;-67
2023/10/18 01:02:59;;;;;;;8.75;3.53;;;;;;;;;;5088479;28;20022;-67
2023/10/18 01:05:25;;;;;;;6.13;3.85;;;;;;;;;;5094015;28;20111;-66
2023/10/18 01:07:53;;;;;;;5.97;3.65;;;;;;;;;;5090770;28;20127;-66
2023/10/18 01:10:19;;;;;;;8.00;3.47;;;;;;;;;;5093622;28;20386;-67
2023/10/18 01:12:45;;;;;;;6.55;3.53;;;;;;;;;;5093960;28;20028;-66
2023/10/18 01:15:12;;;;;;;8.77;3.78;;;;;;;;;;5094195;28;20028;-67
2023/10/18 01:17:43;;;;;;;7.88;3.50;;;;;;;;;;5083395;28;20032;-66
2023/10/18 01:22:52;;;;;;;4.97;3.42;;;;;;;;;;5094137;28;20035;-67
2023/10/18 01:25:18;;;;;;;6.00;3.78;;;;;;;;;;5094175;28;20386;-67
2023/10/18 01:27:45;;;;;;;6.35;3.13;;;;;;;;;;5092735;28;20044;-67
2023/10/18 01:30:11;;;;;;;7.03;3.90;;;;;;;;;;5093980;28;20035;-66
2023/10/18 01:32:38;;;;;;;4.75;3.40;;;;;;;;;;5093210;28;20020;-67
2023/10/18 01:35:05;;;;;;;5.90;3.45;;;;;;;;;;5085323;28;20466;-67
2023/10/18 01:37:31;;;;;;;5.78;3.42;;;;;;;;;;5094113;28;20394;-67
2023/10/18 01:39:57;;;;;;;6.63;3.67;;;;;;;;;;5093584;28;20035;-67
2023/10/18 01:42:23;;;;;;;6.93;3.60;;;;;;;;;;5093577;28;20036;-68
2023/10/18 01:44:49;;;;;;;10.43;3.95;;;;;;;;;;5093204;28;20095;-67
2023/10/18 01:47:15;;;;;;;11.07;3.60;;;;;;;;;;5093392;28;20042;-67
2023/10/18 01:49:46;;;;;;;7.70;3.25;;;;;;;;;;5093995;28;20028;-68
2023/10/18 01:52:17;;;;;;;6.57;3.42;;;;;;;;;;5080025;28;20107;-65
2023/10/18 01:54:42;;;;;;;5.28;3.38;;;;;;;;;;5094014;28;20024;-65
2023/10/18 01:57:08;;;;;;;4.45;2.97;;;;;;;;;;5080186;28;20024;-66
2023/10/18 01:59:36;;;;;;;7.43;3.08;;;;;;;;;;5093157;28;20027;-66
2023/10/18 02:02:10;;;;;;;5.20;3.00;;;;;;;;;;5074078;28;20029;-65
2023/10/18 02:04:41;;;;;;;5.75;3.33;;;;;;;;;;5090605;28;20136;-66
2023/10/18 02:07:07;;;;;;;6.38;3.35;;;;;;;;;;5093140;28;20490;-66
2023/10/18 02:09:36;;;;;;;5.45;3.20;;;;;;;;;;5084359;28;20154;-65
2023/10/18 02:12:07;;;;;;;5.72;3.65;;;;;;;;;;5092167;28;20028;-66
2023/10/18 02:14:33;;;;;;;5.68;3.30;;;;;;;;;;5093537;28;20039;-66
2023/10/18 02:16:59;;;;;;;6.63;3.28;;;;;;;;;;5092932;28;20027;-66
2023/10/18 02:19:24;;;;;;;6.60;2.97;;;;;;;;;;5092840;28;20028;-66
2023/10/18 02:21:49;;;;;;;4.93;3.42;;;;;;;;;;5092972;28;20046;-66
2023/10/18 02:24:14;;;;;;;5.00;3.05;;;;;;;;;;5093060;28;20066;-66
2023/10/18 02:26:55;;;;;;;4.68;3.22;;;;;;;;;;5092856;28;20077;-66
2023/10/18 02:29:23;;;;;;;4.00;2.65;;;;;;;;;;5082118;28;20039;-66
2023/10/18 02:31:50;;;;;;;5.25;3.60;;;;;;;;;;5088565;28;20522;-66
2023/10/18 02:34:15;;;;;;;5.95;3.28;;;;;;;;;;5093211;28;20066;-66
2023/10/18 02:36:50;;;;;;;6.97;3.45;;;;;;;;;;5093020;28;20028;-67
2023/10/18 02:39:22;;;;;;;9.55;3.30;;;;;;;;;;5093281;28;20028;-66
2023/10/18 02:41:49;;;;;;;7.28;3.83;;;;;;;;;;5092779;28;20028;-66
2023/10/18 02:44:21;;;;;;;8.52;3.40;;;;;;;;;;5092476;28;20028;-66
2023/10/18 02:46:49;;;;;;;5.72;3.45;;;;;;;;;;5091446;28;20051;-66
2023/10/18 02:49:14;;;;;;;7.32;3.15;;;;;;;;;;5077491;28;20422;-66
2023/10/18 02:51:40;;;;;;;6.45;3.47;;;;;;;;;;5089807;28;20073;-66
2023/10/18 02:56:39;;;;;;;6.18;2.95;;;;;;;;;;5093242;28;20043;-66
2023/10/18 02:59:08;;;;;;;5.50;3.40;;;;;;;;;;5092646;28;20032;-66
2023/10/18 03:01:40;;;;;;;4.80;2.88;;;;;;;;;;5092039;28;20074;-66
2023/10/18 03:04:08;;;;;;;7.15;3.05;;;;;;;;;;5092046;28;20467;-67
2023/10/18 03:06:34;;;;;;;5.15;3.03;;;;;;;;;;5092481;28;20016;-67
2023/10/18 03:09:00;;;;;;;5.88;3.42;;;;;;;;;;5088256;28;20024;-67
2023/10/18 03:11:26;;;;;;;6.05;3.25;;;;;;;;;;5092794;28;20032;-67
2023/10/18 03:13:52;;;;;;;5.13;3.47;;;;;;;;;;5091777;28;20467;-66
2023/10/18 03:16:27;;;;;;;4.57;3.47;;;;;;;;;;5083431;28;20032;-66
2023/10/18 03:18:53;;;;;;;6.78;3.95;;;;;;;;;;5089434;28;20031;-66
2023/10/18 03:21:21;;;;;;;6.53;3.55;;;;;;;;;;5092674;28;20028;-65
2023/10/18 03:23:50;;;;;;;7.85;3.65;;;;;;;;;;5092813;28;20032;-66
2023/10/18 03:26:21;;;;;;;6.95;3.13;;;;;;;;;;5092596;28;20672;-66
2023/10/18 03:28:46;;;;;;;6.38;3.20;;;;;;;;;;5092034;28;20027;-66
2023/10/18 03:31:34;;;;;;;7.38;3.65;;;;;;;;;;5092003;28;20486;-66
2023/10/18 03:34:02;;;;;;;5.72;2.97;;;;;;;;;;5091906;28;20032;-66
2023/10/18 03:36:34;;;;;;;5.95;3.35;;;;;;;;;;5092446;28;20097;-66
2023/10/18 03:39:21;;;;;;;5.97;3.72;;;;;;;;;;5080782;28;20020;-67
2023/10/18 03:41:50;;;;;;;6.80;3.25;;;;;;;;;;5090934;28;20028;-70
2023/10/18 03:44:21;;;;;;;6.85;3.50;;;;;;;;;;5092308;28;20024;-65
2023/10/18 03:49:16;;;;;;;4.82;3.00;;;;;;;;;;5091747;28;20032;-65
2023/10/18 03:51:41;;;;;;;4.47;3.00;;;;;;;;;;5091253;28;20036;-66
2023/10/18 03:54:12;;;;;;;5.45;3.05;;;;;;;;;;5091832;28;20028;-65
2023/10/18 03:56:38;;;;;;;6.00;3.13;;;;;;;;;;5091397;28;20030;-66
2023/10/18 03:59:19;;;;;;;4.90;3.10;;;;;;;;;;5092257;28;20118;-65
2023/10/18 04:02:02;;;;;;;7.97;3.78;;;;;;;;;;5091505;28;20069;-66
2023/10/18 04:04:30;;;;;;;6.35;2.92;;;;;;;;;;5091235;28;20107;-65
2023/10/18 04:07:01;;;;;;;6.40;3.35;;;;;;;;;;5080117;28;20386;-65
2023/10/18 04:09:26;;;;;;;5.40;3.28;;;;;;;;;;5086077;28;20447;-65
2023/10/18 04:11:53;;;;;;;5.53;3.38;;;;;;;;;;5091458;28;20032;-66
2023/10/18 04:14:21;;;;;;;7.55;3.13;;;;;;;;;;5091523;28;20031;-65
2023/10/18 04:16:54;;;;;;;5.18;2.90;;;;;;;;;;5078608;28;20024;-66
2023/10/18 04:19:19;;;;;;;6.72;3.28;;;;;;;;;;5066869;28;20027;-65
2023/10/18 04:21:46;;;;;;;5.60;3.00;;;;;;;;;;5072797;28;20475;-66
2023/10/18 04:24:12;;;;;;;4.32;2.80;;;;;;;;;;5089832;28;20027;-66
2023/10/18 04:26:40;;;;;;;8.15;3.20;;;;;;;;;;5090158;28;20028;-66
2023/10/18 04:29:10;;;;;;;4.57;3.13;;;;;;;;;;5089389;28;20023;-65
2023/10/18 04:31:35;;;;;;;4.82;2.72;;;;;;;;;;5091583;28;20145;-66
2023/10/18 04:34:03;;;;;;;4.90;3.10;;;;;;;;;;5090617;28;20484;-66
2023/10/18 04:36:33;;;;;;;6.40;2.92;;;;;;;;;;5091470;28;20636;-65
2023/10/18 04:38:59;;;;;;;9.45;3.75;;;;;;;;;;5089375;28;20039;-65
2023/10/18 04:41:27;;;;;;;5.60;3.33;;;;;;;;;;5091366;28;20036;-66
2023/10/18 04:46:30;;;;;;;4.97;3.00;;;;;;;;;;5084536;28;20039;-65
2023/10/18 04:51:56;;;;;;;4.95;3.38;;;;;;;;;;5091021;28;20123;-66
2023/10/18 04:54:17;;;;;;;6.63;3.15;;;;;;;;;;5078164;28;20033;-66
2023/10/18 04:56:46;;;;;;;8.43;3.00;;;;;;;;;;5090706;28;20107;-66
2023/10/18 05:04:20;;;;;;;5.60;2.90;;;;;;;;;;5084629;28;20025;-67
2023/10/18 05:06:52;;;;;;;5.97;2.88;;;;;;;;;;5090910;28;20036;-66
2023/10/18 05:09:18;;;;;;;5.93;3.40;;;;;;;;;;5079211;28;20024;-66
2023/10/18 05:11:55;;;;;;;6.82;3.08;;;;;;;;;;5089781;28;20039;-68
2023/10/18 05:14:35;;;;;;;4.93;3.00;;;;;;;;;;5090544;28;20478;-67
2023/10/18 05:17:02;;;;;;;8.45;3.38;;;;;;;;;;5090104;28;20032;-66
2023/10/18 05:19:31;;;;;;;5.93;3.10;;;;;;;;;;5086139;28;20024;-67
2023/10/18 05:21:56;;;;;;;5.45;3.60;;;;;;;;;;5090919;28;20493;-67
2023/10/18 05:24:21;;;;;;;10.25;4.95;;;;;;;;;;5090422;28;20043;-67
2023/10/18 05:26:53;;;;;;;7.10;3.88;;;;;;;;;;5090024;28;20024;-67
2023/10/18 05:29:19;;;;;;;6.28;3.17;;;;;;;;;;5089926;28;20463;-67
2023/10/18 05:32:05;;;;;;;6.47;3.65;;;;;;;;;;5089531;28;20028;-67
2023/10/18 05:34:48;;;;;;;5.55;3.15;;;;;;;;;;5090153;28;20034;-67
2023/10/18 05:37:14;;;;;;;4.78;3.28;;;;;;;;;;5090350;28;20028;-67
2023/10/18 05:42:23;;;;;;;5.80;3.28;;;;;;;;;;5047172;28;20894;-67
2023/10/18 05:44:49;;;;;;;6.40;3.72;;;;;;;;;;5045638;28;20024;-67
2023/10/18 05:47:14;;;;;;;5.38;3.40;;;;;;;;;;5047713;28;20028;-67
2023/10/18 05:49:42;;;;;;;7.43;3.55;;;;;;;;;;5039629;28;20055;-67
2023/10/18 05:54:35;;;;;;;4.80;3.13;;;;;;;;;;5041146;28;20038;-67
2023/10/18 05:57:00;;;;;;;8.43;4.22;;;;;;;;;;5045709;28;20024;-67
2023/10/18 05:59:31;;;;;;;7.30;3.65;;;;;;;;;;5047228;28;20028;-67
2023/10/18 06:04:44;;;;;;;6.40;3.53;;;;;;;;;;5046874;28;20140;-67
2023/10/18 06:07:10;;;;;;;7.28;3.78;;;;;;;;;;5046997;28;20129;-67
2023/10/18 06:09:45;;;;;;;8.02;4.00;;;;;;;;;;5042241;28;20906;-67
2023/10/18 06:12:13;;;;;;;7.07;4.00;;;;;;;;;;5044351;28;20024;-67
2023/10/18 06:14:41;;;;;;;8.85;3.75;;;;;;;;;;5048111;28;20047;-67
2023/10/18 06:17:12;;;;;;;7.10;3.92;;;;;;;;;;5046177;28;20016;-67
2023/10/18 06:19:38;;;;;;;7.60;4.05;;;;;;;;;;5049186;28;20028;-67
2023/10/18 06:22:15;;;;;;;6.78;3.72;;;;;;;;;;5035522;28;20021;-67
2023/10/18 06:24:43;;;;;;;6.00;3.70;;;;;;;;;;5037394;28;20019;-67
2023/10/18 06:27:08;;;;;;;5.55;3.67;;;;;;;;;;5027474;28;20906;-67
2023/10/18 06:29:36;;;;;;;7.45;3.97;;;;;;;;;;5049173;28;20028;-66
2023/10/18 06:32:04;;;;;;;6.43;3.90;;;;;;;;;;5049581;28;20024;-66
2023/10/18 06:34:32;;;;;;;8.07;4.03;;;;;;;;;;5028823;28;20868;-66
2023/10/18 06:37:01;;;;;;;9.05;4.20;;;;;;;;;;5045766;28;20032;-66
2023/10/18 06:39:28;;;;;;;7.95;4.18;;;;;;;;;;5045159;28;20031;-66
2023/10/18 06:41:54;;;;;;;6.63;4.05;;;;;;;;;;5044254;28;20127;-66
2023/10/18 06:44:19;;;;;;;6.28;3.95;;;;;;;;;;5048413;28;20024;-65
2023/10/18 06:46:47;;;;;;;8.82;4.85;;;;;;;;;;5043352;28;20131;-66
2023/10/18 06:49:12;;;;;;;6.93;4.28;;;;;;;;;;5046671;28;20024;-66
2023/10/18 06:51:40;;;;;;;5.93;3.70;;;;;;;;;;5044889;28;20113;-66
2023/10/18 06:54:12;;;;;;;6.05;3.50;;;;;;;;;;5046893;28;20020;-66
2023/10/18 06:56:45;;;;;;;6.57;4.50;;;;;;;;;;5048652;28;20055;-66
2023/10/18 06:59:10;;;;;;;7.38;3.88;;;;;;;;;;5045706;28;20024;-65
2023/10/18 07:01:42;;;;;;;7.28;4.53;;;;;;;;;;5045608;28;20132;-66
2023/10/18 07:04:27;;;;;;;6.15;4.00;;;;;;;;;;5049826;28;20065;-66
2023/10/18 07:06:52;;;;;;;7.68;3.70;;;;;;;;;;5044795;28;20109;-66
2023/10/18 07:09:28;;;;;;;10.77;4.57;;;;;;;;;;5030999;28;20792;-66
2023/10/18 07:11:57;;;;;;;5.45;4.00;;;;;;;;;;5050253;28;20079;-66
2023/10/18 07:14:24;;;;;;;9.65;4.82;;;;;;;;;;5047334;28;20095;-66
2023/10/18 07:16:49;;;;;;;7.05;4.50;;;;;;;;;;5043764;28;20020;-66
2023/10/18 07:19:26;;;;;;;6.47;4.13;;;;;;;;;;5037206;28;20968;-66
2023/10/18 07:21:52;;;;;;;7.03;4.38;;;;;;;;;;5043629;28;20024;-65
2023/10/18 07:24:17;;;;;;;7.18;4.15;;;;;;;;;;5041265;28;20198;-65
2023/10/18 07:26:43;;;;;;;6.35;4.40;;;;;;;;;;5044954;28;21766;-65
2023/10/18 07:29:10;;;;;;;11.50;3.90;;;;;;;;;;5043218;28;20036;-65
2023/10/18 07:31:39;;;;;;;9.10;4.22;;;;;;;;;;5039071;28;20028;-66
2023/10/18 07:34:17;;;;;;;9.48;4.88;;;;;;;;;;5040595;28;20429;-65
2023/10/18 07:36:44;;;;;;;7.03;4.45;;;;;;;;;;5033865;28;20108;-66
2023/10/18 07:39:11;;;;;;;6.22;4.00;;;;;;;;;;5044975;28;20901;-66
2023/10/18 07:41:36;;;;;;;8.45;4.43;;;;;;;;;;5048267;28;20024;-65
2023/10/18 07:44:05;;;;;;;5.65;4.30;;;;;;;;;;5038808;28;20021;-66
2023/10/18 07:46:32;;;;;;;8.98;4.93;;;;;;;;;;5040258;28;20023;-66
2023/10/18 07:49:04;;;;;;;8.68;4.10;;;;;;;;;;5048600;28;20024;-66
2023/10/18 07:51:32;;;;;;;8.02;4.80;;;;;;;;;;5038140;28;20036;-67
2023/10/18 07:53:59;;;;;;;6.32;4.35;;;;;;;;;;5045264;28;21152;-67
2023/10/18 07:56:29;;;;;;;5.90;3.97;;;;;;;;;;5051222;28;20882;-68
2023/10/18 07:58:55;;;;;;;6.65;3.90;;;;;;;;;;5046772;28;20031;-68
2023/10/18 08:04:05;;;;;;;9.30;5.18;;;;;;;;;;5070016;28;20046;-67
2023/10/18 08:06:33;;;;;;;6.15;4.30;;;;;;;;;;5087597;28;20019;-69
2023/10/18 08:09:03;;;;;;;10.57;4.38;;;;;;;;;;5062647;28;20089;-67
2023/10/18 08:11:32;;;;;;;9.27;4.60;;;;;;;;;;5070983;28;20028;-67
2023/10/18 08:13:57;;;;;;;10.48;4.50;;;;;;;;;;5074185;28;20097;-67
2023/10/18 08:16:27;;;;;;;9.27;4.50;;;;;;;;;;5090964;28;20028;-67
2023/10/18 08:18:53;;;;;;;6.10;4.10;;;;;;;;;;5076637;28;20036;-67
2023/10/18 08:21:36;;;;;;;7.65;5.10;;;;;;;;;;5074788;28;20527;-68
2023/10/18 08:24:08;;;;;;;8.18;4.60;;;;;;;;;;5036994;28;20040;-68
2023/10/18 08:26:45;;;;;;;11.88;4.68;;;;;;;;;;5046903;28;20139;-68
2023/10/18 08:29:10;;;;;;;8.95;4.53;;;;;;;;;;5090940;28;20031;-67
2023/10/18 08:31:36;;;;;;;5.30;4.30;;;;;;;;;;5090402;28;20024;-67
2023/10/18 08:34:15;;;;;;;5.90;4.33;;;;;;;;;;5088438;28;20031;-67
2023/10/18 08:36:40;;;;;;;7.78;4.00;;;;;;;;;;5061563;28;20317;-68
2023/10/18 08:39:08;;;;;;;6.47;4.53;;;;;;;;;;5038139;28;20085;-67
2023/10/18 08:41:36;;;;;;;12.15;4.57;;;;;;;;;;5075936;28;20024;-67
2023/10/18 08:44:16;;;;;;;7.10;3.83;;;;;;;;;;5046851;28;20031;-67
2023/10/18 08:47:04;;;;;;;5.95;4.15;;;;;;;;;;5046472;28;20024;-67
2023/10/18 08:49:32;;;;;;;8.05;4.68;;;;;;;;;;5049079;28;20020;-66
2023/10/18 08:52:08;;;;;;;7.75;4.50;;;;;;;;;;5041115;28;20052;-67
2023/10/18 08:54:34;;;;;;;6.20;4.25;;;;;;;;;;5038622;28;20028;-67
2023/10/18 08:57:06;;;;;;;8.60;3.90;;;;;;;;;;5079318;28;20024;-67
2023/10/18 08:59:39;;;;;;;9.68;4.50;;;;;;;;;;5089502;28;20056;-67
2023/10/18 09:02:39;;;;;;;7.78;4.30;;;;;;;;;;5083699;28;20047;-67
2023/10/18 09:04:59;;;;;;;7.22;4.25;;;;;;;;;;5085798;28;20032;-67
2023/10/18 09:07:42;;;;;;;6.75;4.20;;;;;;;;;;5087610;28;20055;-67
2023/10/18 09:10:13;;;;;;;7.28;4.43;;;;;;;;;;5084907;28;20028;-67
2023/10/18 09:17:54;;;;;;;8.68;4.20;;;;;;;;;;5093804;28;20062;-67
2023/10/18 09:20:25;;;;;;;6.40;4.30;;;;;;;;;;5082118;28;20536;-67
2023/10/18 09:22:50;;;;;;;10.18;4.10;;;;;;;;;;5092226;28;20032;-67
2023/10/18 09:25:15;;;;;;;9.23;4.15;;;;;;;;;;5093168;28;20129;-67
2023/10/18 09:27:41;;;;;;;7.13;4.38;;;;;;;;;;5092945;28;20012;-67
2023/10/18 09:30:10;;;;;;;5.77;4.00;;;;;;;;;;5093397;28;20024;-67
2023/10/18 09:32:36;;;;;;;7.03;4.00;;;;;;;;;;5092284;28;20363;-67
2023/10/18 09:35:08;;;;;;;9.10;4.28;;;;;;;;;;5092899;28;20019;-67
2023/10/18 09:37:35;;;;;;;7.95;4.50;;;;;;;;;;5091924;28;20552;-67
2023/10/18 09:40:02;;;;;;;8.35;4.22;;;;;;;;;;5091831;28;20477;-67
2023/10/18 09:42:27;;;;;;;9.25;4.25;;;;;;;;;;5092881;28;20088;-67
2023/10/18 09:44:53;;;;;;;7.65;3.67;;;;;;;;;;5088970;28;20020;-67
2023/10/18 09:47:18;;;;;;;6.80;4.13;;;;;;;;;;5091969;28;20024;-67
2023/10/18 09:49:45;;;;;;;5.93;4.40;;;;;;;;;;5092719;28;20753;-67
2023/10/18 09:52:13;;;;;;;5.88;3.85;;;;;;;;;;5082192;28;20540;-66
2023/10/18 09:54:44;;;;;;;8.00;4.25;;;;;;;;;;5086654;28;20016;-67
2023/10/18 09:57:18;;;;;;;10.18;4.30;;;;;;;;;;5086054;28;20118;-67
2023/10/18 09:59:47;;;;;;;8.55;4.95;;;;;;;;;;5046862;28;20801;-67
2023/10/18 10:02:15;;;;;;;7.35;4.10;;;;;;;;;;5058462;28;20032;-67
2023/10/18 10:04:43;;;;;;;7.00;4.45;;;;;;;;;;5067733;28;20024;-66
2023/10/18 10:09:59;;;;;;;9.40;4.32;;;;;;;;;;5047597;28;20121;-67
2023/10/18 10:12:28;;;;;;;6.95;4.03;;;;;;;;;;5040769;28;20261;-67
2023/10/18 10:14:54;;;;;;;8.93;4.60;;;;;;;;;;5018684;28;20133;-67
2023/10/18 10:17:20;;;;;;;7.15;4.15;;;;;;;;;;5034499;28;20867;-67
2023/10/18 10:19:52;;;;;;;6.63;4.38;;;;;;;;;;5044756;28;20034;-67
2023/10/18 10:22:18;;;;;;;7.10;4.00;;;;;;;;;;5038160;28;20880;-67
2023/10/18 10:24:44;;;;;;;7.82;4.75;;;;;;;;;;5046574;28;20034;-67
2023/10/18 10:27:27;;;;;;;6.47;3.83;;;;;;;;;;5045006;28;20031;-67
2023/10/18 10:29:59;;;;;;;5.88;4.05;;;;;;;;;;5041408;28;20090;-67
2023/10/18 10:32:27;;;;;;;6.38;4.15;;;;;;;;;;5053423;28;20032;-66
2023/10/18 10:35:15;;;;;;;8.05;4.32;;;;;;;;;;5048726;28;20020;-67
2023/10/18 10:37:47;;;;;;;7.53;4.45;;;;;;;;;;5042295;28;20028;-67
2023/10/18 10:43:12;;;;;;;8.15;4.40;;;;;;;;;;5085625;28;20117;-66
2023/10/18 10:45:39;;;;;;;8.15;4.20;;;;;;;;;;5085121;28;20073;-66
2023/10/18 10:50:56;;;;;;;5.15;3.63;;;;;;;;;;5076341;28;20085;-66
2023/10/18 10:53:36;;;;;;;7.75;4.38;;;;;;;;;;5037015;28;20028;-66
2023/10/18 10:56:06;;;;;;;6.97;4.32;;;;;;;;;;5047051;28;20023;-66
2023/10/18 10:58:38;;;;;;;9.63;3.95;;;;;;;;;;5049993;28;20076;-66
2023/10/18 11:01:08;;;;;;;5.63;3.60;;;;;;;;;;5039078;28;20029;-66
2023/10/18 11:03:48;;;;;;;6.65;3.90;;;;;;;;;;5045569;28;20925;-67
2023/10/18 11:06:19;;;;;;;7.18;4.10;;;;;;;;;;5040876;28;20082;-66
2023/10/18 11:08:45;;;;;;;7.90;4.65;;;;;;;;;;5077326;28;20028;-66
2023/10/18 11:11:11;;;;;;;10.43;4.82;;;;;;;;;;5051886;28;20024;-66
2023/10/18 11:13:41;;;;;;;5.35;3.95;;;;;;;;;;5040089;28;20138;-65
2023/10/18 11:16:06;;;;;;;7.28;4.80;;;;;;;;;;5044099;28;20028;-66
2023/10/18 11:18:35;;;;;;;8.00;3.80;;;;;;;;;;5029334;28;20101;-65
2023/10/18 11:21:19;;;;;;;9.15;4.32;;;;;;;;;;5080557;28;20023;-66
2023/10/18 11:23:57;;;;;;;7.30;4.47;;;;;;;;;;5092142;28;20020;-66
2023/10/18 11:26:24;;;;;;;10.80;4.20;;;;;;;;;;5038578;28;20376;-65
2023/10/18 11:28:54;;;;;;;7.10;4.32;;;;;;;;;;5064778;28;20016;-67
2023/10/18 11:31:19;;;;;;;7.05;4.03;;;;;;;;;;5083274;28;20065;-65
2023/10/18 11:36:32;;;;;;;8.98;4.32;;;;;;;;;;5049043;28;20079;-65
2023/10/18 11:41:44;;;;;;;7.90;3.97;;;;;;;;;;5085235;28;20609;-65
2023/10/18 11:44:13;;;;;;;6.60;3.95;;;;;;;;;;5069413;28;20039;-66
2023/10/18 11:46:46;;;;;;;7.32;4.32;;;;;;;;;;5057392;28;20036;-65
2023/10/18 11:49:18;;;;;;;6.90;4.00;;;;;;;;;;5048015;28;20008;-66
2023/10/18 11:51:44;;;;;;;7.32;3.65;;;;;;;;;;5040176;28;20051;-66
2023/10/18 11:54:12;;;;;;;7.45;4.03;;;;;;;;;;5044076;28;20828;-65
2023/10/18 11:56:38;;;;;;;8.38;4.25;;;;;;;;;;5048222;28;20024;-65
2023/10/18 11:59:03;;;;;;;8.60;3.83;;;;;;;;;;5043949;28;21023;-66
2023/10/18 12:01:34;;;;;;;5.35;3.53;;;;;;;;;;5046612;28;20876;-65
2023/10/18 12:04:00;;;;;;;5.85;3.78;;;;;;;;;;5035770;28;20024;-65
2023/10/18 12:06:26;;;;;;;11.13;3.75;;;;;;;;;;5048958;28;20039;-65
2023/10/18 12:11:35;;;;;;;9.25;4.15;;;;;;;;;;5041503;28;20829;-66
2023/10/18 12:14:00;;;;;;;9.25;3.70;;;;;;;;;;5037331;28;20024;-65
2023/10/18 12:16:26;;;;;;;6.75;3.47;;;;;;;;;;5042428;28;20562;-66
2023/10/18 12:18:52;;;;;;;7.45;3.50;;;;;;;;;;5042932;28;20873;-65
2023/10/18 12:21:20;;;;;;;8.13;3.50;;;;;;;;;;5048280;28;20084;-65
2023/10/18 12:23:46;;;;;;;6.88;4.20;;;;;;;;;;5038575;28;20020;-65
2023/10/18 12:26:11;;;;;;;6.38;3.70;;;;;;;;;;5044114;28;20024;-65
2023/10/18 12:28:37;;;;;;;6.32;3.80;;;;;;;;;;5041018;28;20101;-65
2023/10/18 12:31:09;;;;;;;9.20;4.18;;;;;;;;;;5037154;28;20056;-66
2023/10/18 12:33:35;;;;;;;11.57;3.50;;;;;;;;;;5043085;28;20085;-65
2023/10/18 12:36:00;;;;;;;6.05;3.22;;;;;;;;;;5043932;28;20099;-65
2023/10/18 12:38:32;;;;;;;8.75;4.03;;;;;;;;;;5040715;28;20854;-65
2023/10/18 12:41:27;;;;;;;4.88;3.30;;;;;;;;;;5051866;28;20055;-65
2023/10/18 12:43:52;;;;;;;8.35;3.85;;;;;;;;;;5028770;28;20899;-65
2023/10/18 12:46:21;;;;;;;7.00;3.63;;;;;;;;;;5050878;28;20161;-65
2023/10/18 12:48:49;;;;;;;7.78;3.03;;;;;;;;;;5045254;28;20028;-65
2023/10/18 12:51:17;;;;;;;8.32;3.70;;;;;;;;;;5038851;28;20875;-66
2023/10/18 12:53:48;;;;;;;6.47;3.65;;;;;;;;;;5036182;28;20020;-65
2023/10/18 12:58:58;;;;;;;6.40;3.53;;;;;;;;;;5046218;28;20164;-65
2023/10/18 13:01:31;;;;;;;6.70;3.13;;;;;;;;;;5039395;28;20146;-66
2023/10/18 13:03:57;;;;;;;8.35;3.75;;;;;;;;;;5040182;28;20036;-66
2023/10/18 13:06:30;;;;;;;5.63;3.17;;;;;;;;;;5041501;28;20056;-67
2023/10/18 13:08:56;;;;;;;10.82;4.07;;;;;;;;;;5046272;28;20039;-66
2023/10/18 13:14:11;;;;;;;6.00;3.63;;;;;;;;;;5045699;28;20043;-68
2023/10/18 13:16:36;;;;;;;6.95;3.35;;;;;;;;;;5047234;28;20171;-66
2023/10/18 13:19:04;;;;;;;6.40;3.67;;;;;;;;;;5046746;28;20150;-65
2023/10/18 13:21:29;;;;;;;5.93;3.67;;;;;;;;;;5046797;28;20055;-68
2023/10/18 13:23:59;;;;;;;6.78;3.72;;;;;;;;;;5056947;28;20034;-67
2023/10/18 13:26:28;;;;;;;4.57;3.15;;;;;;;;;;5062796;28;20020;-65
2023/10/18 13:28:59;;;;;;;8.75;3.20;;;;;;;;;;5037656;28;20908;-68
2023/10/18 13:31:32;;;;;;;7.25;3.70;;;;;;;;;;5059648;28;20081;-67
2023/10/18 13:34:18;;;;;;;5.60;3.30;;;;;;;;;;5039203;28;20285;-67
2023/10/18 13:36:44;;;;;;;6.85;3.20;;;;;;;;;;5042534;28;20317;-67
2023/10/18 13:39:11;;;;;;;8.65;3.35;;;;;;;;;;5053990;28;20878;-66
2023/10/18 13:41:37;;;;;;;7.65;3.42;;;;;;;;;;5052691;28;20125;-66
2023/10/18 13:44:04;;;;;;;7.05;3.60;;;;;;;;;;5051952;28;20896;-67
2023/10/18 13:46:29;;;;;;;8.50;3.63;;;;;;;;;;5049559;28;20035;-67
2023/10/18 13:48:54;;;;;;;5.38;3.33;;;;;;;;;;5044230;28;20036;-67
2023/10/18 13:51:20;;;;;;;8.15;3.50;;;;;;;;;;5043904;28;20032;-67
2023/10/18 13:53:46;;;;;;;11.48;3.30;;;;;;;;;;5038738;28;20171;-66
2023/10/18 13:56:12;;;;;;;14.00;3.40;;;;;;;;;;5038976;28;20052;-66
2023/10/18 13:58:39;;;;;;;6.00;2.95;;;;;;;;;;5061305;28;20367;-68
2023/10/18 14:01:05;;;;;;;7.80;2.55;;;;;;;;;;5089173;28;20035;-64
2023/10/18 14:03:32;;;;;;;8.80;3.03;;;;;;;;;;5093646;28;20070;-65
2023/10/18 14:05:57;;;;;;;9.73;2.95;;;;;;;;;;5093063;28;20028;-67
2023/10/18 14:08:24;;;;;;;4.57;2.80;;;;;;;;;;5082088;28;20024;-68
2023/10/18 14:10:54;;;;;;;6.60;3.78;;;;;;;;;;5088873;28;20027;-66
2023/10/18 14:13:20;;;;;;;9.27;3.33;;;;;;;;;;5091797;28;20044;-66
2023/10/18 14:15:45;;;;;;;7.28;2.97;;;;;;;;;;5090996;28;20043;-67
2023/10/18 14:18:10;;;;;;;5.03;3.03;;;;;;;;;;5090246;28;20032;-67
2023/10/18 14:20:38;;;;;;;6.18;2.78;;;;;;;;;;5087173;28;20345;-67
2023/10/18 14:23:07;;;;;;;5.80;3.15;;;;;;;;;;5084888;28;20485;-67
2023/10/18 14:25:32;;;;;;;7.72;3.17;;;;;;;;;;5084052;28;20035;-67
2023/10/18 14:27:58;;;;;;;8.93;3.20;;;;;;;;;;5088618;28;20020;-67
2023/10/18 14:30:25;;;;;;;8.97;3.40;;;;;;;;;;5088120;28;20016;-67
2023/10/18 14:32:50;;;;;;;6.97;3.20;;;;;;;;;;5087467;28;20293;-67
2023/10/18 14:35:18;;;;;;;4.82;2.25;;;;;;;;;;5086410;28;20081;-67
2023/10/18 14:37:44;;;;;;;4.85;2.95;;;;;;;;;;5085383;28;20020;-67
2023/10/18 14:40:10;;;;;;;7.78;2.92;;;;;;;;;;5091189;28;20072;-67
2023/10/18 14:42:35;;;;;;;11.95;3.30;;;;;;;;;;5091267;28;20077;-67
2023/10/18 14:45:00;;;;;;;4.78;2.92;;;;;;;;;;5091274;28;20082;-67
2023/10/18 14:47:26;;;;;;;7.03;2.90;;;;;;;;;;5083576;28;20794;-67
2023/10/18 14:49:51;;;;;;;5.78;2.58;;;;;;;;;;5089700;28;20024;-67
2023/10/18 14:52:19;;;;;;;5.07;2.80;;;;;;;;;;5083359;28;20127;-66
2023/10/18 14:54:49;;;;;;;6.68;2.83;;;;;;;;;;5064452;28;20351;-66
2023/10/18 14:57:19;;;;;;;8.18;3.53;;;;;;;;;;5087077;28;20025;-66
2023/10/18 14:59:45;;;;;;;6.60;2.85;;;;;;;;;;5084898;28;20551;-66
2023/10/18 15:02:13;;;;;;;5.88;3.10;;;;;;;;;;5073002;28;20076;-66
2023/10/18 15:04:38;;;;;;;5.10;2.72;;;;;;;;;;5081872;28;20063;-66
2023/10/18 15:07:04;;;;;;;6.20;3.28;;;;;;;;;;5092008;28;20048;-67
2023/10/18 15:09:29;;;;;;;5.33;3.33;;;;;;;;;;5085228;28;20016;-66
2023/10/18 15:11:54;;;;;;;5.15;3.05;;;;;;;;;;5083038;28;20829;-68
2023/10/18 15:14:21;;;;;;;5.73;3.37;;;;;;;;;;5088293;28;20114;-67
2023/10/18 15:16:46;;;;;;;5.20;2.83;;;;;;;;;;5091864;28;20365;-67
2023/10/18 15:19:15;;;;;;;5.03;2.70;;;;;;;;;;5091120;28;20111;-68
2023/10/18 15:21:41;;;;;;;6.65;3.28;;;;;;;;;;5078609;28;20277;-66
2023/10/18 15:24:07;;;;;;;4.50;2.85;;;;;;;;;;5086120;28;20066;-67
2023/10/18 15:26:37;;;;;;;5.40;2.55;;;;;;;;;;5089663;28;20020;-67
2023/10/18 15:29:03;;;;;;;7.85;3.20;;;;;;;;;;5079988;28;20516;-66
2023/10/18 15:31:28;;;;;;;6.05;2.70;;;;;;;;;;5090971;28;20024;-66
2023/10/18 15:33:54;;;;;;;7.50;3.30;;;;;;;;;;5091638;28;20043;-66
2023/10/18 15:36:21;;;;;;;5.30;3.33;;;;;;;;;;5091795;28;20099;-66
2023/10/18 15:38:50;;;;;;;9.07;3.05;;;;;;;;;;5090134;28;20153;-67
2023/10/18 15:41:19;;;;;;;6.60;2.88;;;;;;;;;;5083652;28;20048;-64
2023/10/18 15:43:46;;;;;;;6.28;2.78;;;;;;;;;;5088070;28;20055;-64
2023/10/18 15:46:12;;;;;;;5.05;2.72;;;;;;;;;;5090566;28;20039;-67
2023/10/18 15:48:44;;;;;;;7.00;3.25;;;;;;;;;;5071090;28;20085;-66
2023/10/18 15:51:09;;;;;;;5.38;2.75;;;;;;;;;;5090374;28;20020;-66